Time;durP1;ratioP1;P1;durP2;ratioP2;P2;SDS_P1;SDS_P2;PMS_P1;PMS_P2;Temp;Humidity;BMP_temperature;BMP_pressure;BME280_temperature;BME280_humidity;BME280_pressure;Samples;Min_cycle;Max_cycle;Signal;HPM_P1;HPM_P2
2023/10/26 00:00:31;;;;;;;26.77;8.20;;;;;;;16.76;79.21;94075.06;5004719;28;20318;-72
2023/10/26 00:02:56;;;;;;;28.52;7.97;;;;;;;16.71;79.08;94072.25;5002756;28;20219;-72
2023/10/26 00:05:22;;;;;;;27.10;8.73;;;;;;;16.73;78.98;94079.97;5000186;28;20194;-72
2023/10/26 00:07:47;;;;;;;25.92;8.65;;;;;;;16.58;79.71;94080.28;5005142;28;20187;-72
2023/10/26 00:10:13;;;;;;;26.77;8.38;;;;;;;16.63;79.16;94090.25;5001805;28;20218;-73
2023/10/26 00:12:39;;;;;;;24.52;8.10;;;;;;;16.55;79.76;94086.00;4990390;28;20311;-72
2023/10/26 00:15:05;;;;;;;30.45;8.75;;;;;;;16.53;79.84;94096.00;4988802;28;20226;-72
2023/10/26 00:17:30;;;;;;;23.35;7.20;;;;;;;16.63;79.29;94095.56;4987495;28;20222;-73
2023/10/26 00:19:56;;;;;;;29.63;8.50;;;;;;;16.59;78.88;94086.38;5002887;28;20194;-72
2023/10/26 00:22:22;;;;;;;26.13;8.43;;;;;;;16.47;79.17;94086.25;4996677;28;20215;-72
2023/10/26 00:24:47;;;;;;;29.35;8.70;;;;;;;16.57;79.11;94081.28;4995566;28;20230;-72
2023/10/26 00:27:14;;;;;;;27.38;8.02;;;;;;;16.62;78.75;94065.53;4995830;28;20234;-73
2023/10/26 00:29:40;;;;;;;28.67;7.70;;;;;;;16.73;78.17;94078.16;5002396;28;20222;-73
2023/10/26 00:32:06;;;;;;;33.55;8.15;;;;;;;16.60;78.52;94074.75;5000078;28;20175;-73
2023/10/26 00:34:35;;;;;;;24.80;7.07;;;;;;;16.55;78.33;94062.13;5002025;28;20219;-73
2023/10/26 00:37:01;;;;;;;32.00;8.85;;;;;;;16.51;78.43;94060.91;5001448;28;20264;-73
2023/10/26 00:39:27;;;;;;;19.67;7.20;;;;;;;16.58;78.36;94069.66;4995779;28;20249;-73
2023/10/26 00:41:53;;;;;;;20.45;6.82;;;;;;;16.64;78.28;94074.09;4999128;28;20595;-72
2023/10/26 00:44:20;;;;;;;21.33;6.88;;;;;;;16.58;77.98;94082.13;5004220;28;20189;-72
2023/10/26 00:46:46;;;;;;;25.67;7.90;;;;;;;16.62;78.01;94072.69;5000677;28;20228;-72
2023/10/26 00:49:15;;;;;;;21.80;7.22;;;;;;;16.33;78.91;94072.19;4998198;28;20257;-72
2023/10/26 00:51:44;;;;;;;28.10;7.82;;;;;;;16.27;79.29;94076.50;4995841;28;20315;-72
2023/10/26 00:54:10;;;;;;;25.25;7.85;;;;;;;16.23;79.00;94074.50;4998525;28;20223;-72
2023/10/26 00:56:36;;;;;;;25.45;7.15;;;;;;;16.25;79.12;94077.75;4997310;28;20199;-72
2023/10/26 00:59:03;;;;;;;23.15;7.45;;;;;;;16.24;79.07;94071.63;4998006;28;20174;-73
2023/10/26 01:01:30;;;;;;;20.60;6.93;;;;;;;16.12;79.94;94065.38;5002920;28;20223;-72
2023/10/26 01:03:56;;;;;;;21.33;7.05;;;;;;;16.18;80.05;94072.47;5002085;28;20222;-73
2023/10/26 01:06:22;;;;;;;24.92;7.78;;;;;;;16.12;80.27;94057.41;5006342;28;20226;-73
2023/10/26 01:08:48;;;;;;;18.67;6.97;;;;;;;16.16;79.95;94052.50;5004089;28;20219;-73
2023/10/26 01:11:14;;;;;;;19.15;7.32;;;;;;;16.18;79.95;94074.31;5007037;28;20219;-72
2023/10/26 01:13:41;;;;;;;22.00;7.35;;;;;;;16.22;79.58;94055.09;5005134;28;20225;-72
2023/10/26 01:16:06;;;;;;;21.10;6.28;;;;;;;16.15;79.04;94061.47;5006690;28;20234;-72
2023/10/26 01:18:32;;;;;;;18.10;7.18;;;;;;;16.13;78.87;94055.56;5011189;28;20223;-72
2023/10/26 01:20:57;;;;;;;22.42;7.22;;;;;;;16.22;78.24;94056.94;5006185;28;20313;-71
2023/10/26 01:23:23;;;;;;;19.75;5.57;;;;;;;16.25;77.83;94051.22;5000674;28;20187;-72
2023/10/26 01:25:54;;;;;;;20.92;7.18;;;;;;;16.13;78.05;94052.91;5006619;28;20183;-73
2023/10/26 01:28:19;;;;;;;21.48;7.15;;;;;;;16.14;78.18;94047.38;5000309;28;20218;-73
2023/10/26 01:30:44;;;;;;;22.25;6.63;;;;;;;16.22;77.78;94043.69;5002550;28;20227;-72
2023/10/26 01:33:10;;;;;;;14.77;5.80;;;;;;;16.15;77.75;94061.47;5004084;28;20214;-73
2023/10/26 01:35:41;;;;;;;24.45;6.50;;;;;;;16.26;77.95;94056.31;5009324;28;20297;-73
2023/10/26 01:38:06;;;;;;;16.50;5.70;;;;;;;16.03;78.09;94056.78;5004036;28;20176;-73
2023/10/26 01:40:33;;;;;;;21.58;6.25;;;;;;;16.07;78.05;94057.22;5010354;28;20237;-74
2023/10/26 01:42:58;;;;;;;22.13;6.38;;;;;;;16.07;77.99;94052.72;5006893;28;20251;-73
2023/10/26 01:45:24;;;;;;;17.20;6.25;;;;;;;16.15;77.91;94054.34;5008266;28;20301;-73
2023/10/26 01:47:49;;;;;;;14.82;5.60;;;;;;;16.04;77.89;94054.97;5003304;28;20215;-73
2023/10/26 01:50:15;;;;;;;15.70;6.07;;;;;;;15.98;77.70;94053.16;5001465;28;20199;-73
2023/10/26 01:52:41;;;;;;;22.92;6.82;;;;;;;16.02;77.51;94062.31;5002337;28;20784;-73
2023/10/26 01:55:07;;;;;;;17.98;6.55;;;;;;;16.09;76.96;94069.25;5001356;28;20220;-73
2023/10/26 01:57:33;;;;;;;21.05;5.78;;;;;;;15.87;78.51;94060.72;5004964;28;20278;-72
2023/10/26 01:59:59;;;;;;;22.92;5.57;;;;;;;15.88;78.32;94070.31;5004131;28;20229;-73
2023/10/26 02:02:24;;;;;;;24.52;6.68;;;;;;;16.03;77.46;94063.94;5001405;28;20207;-72
2023/10/26 02:04:50;;;;;;;22.92;6.35;;;;;;;15.99;77.73;94060.09;5001428;28;20183;-73
2023/10/26 02:07:15;;;;;;;19.83;7.20;;;;;;;15.97;78.26;94059.47;5002551;28;20219;-73
2023/10/26 02:09:40;;;;;;;20.23;6.70;;;;;;;15.91;78.34;94068.28;5006420;28;20224;-73
2023/10/26 02:12:06;;;;;;;23.33;6.78;;;;;;;15.93;78.27;94056.44;5009564;28;20305;-73
2023/10/26 02:14:31;;;;;;;19.65;6.63;;;;;;;16.05;77.60;94051.28;4997901;28;20187;-73
2023/10/26 02:16:57;;;;;;;16.60;6.18;;;;;;;15.82;78.65;94051.75;5004271;28;20246;-73
2023/10/26 02:19:22;;;;;;;20.05;6.35;;;;;;;15.86;78.99;94058.28;5005508;28;20219;-73
2023/10/26 02:21:48;;;;;;;15.20;5.88;;;;;;;15.95;78.15;94058.88;5007213;28;20227;-73
2023/10/26 02:24:13;;;;;;;14.80;5.97;;;;;;;15.97;78.01;94039.09;4995526;28;20241;-73
2023/10/26 02:26:38;;;;;;;20.40;6.03;;;;;;;15.93;78.41;94050.31;5002152;28;20266;-73
2023/10/26 02:29:04;;;;;;;20.27;6.40;;;;;;;15.92;78.17;94054.00;5003013;28;20195;-73
2023/10/26 02:31:29;;;;;;;19.63;5.75;;;;;;;15.97;77.91;94054.19;4993989;28;20249;-73
2023/10/26 02:33:55;;;;;;;19.75;6.50;;;;;;;15.97;77.54;94048.88;4999136;28;20277;-73
2023/10/26 02:36:21;;;;;;;13.80;5.13;;;;;;;15.92;77.65;94046.03;5002907;28;20223;-73
2023/10/26 02:38:47;;;;;;;17.13;6.07;;;;;;;15.96;77.42;94040.13;5008360;28;20257;-73
2023/10/26 02:41:12;;;;;;;21.30;5.70;;;;;;;15.98;77.21;94038.03;5011583;28;20248;-73
2023/10/26 02:43:38;;;;;;;15.70;5.03;;;;;;;15.97;76.48;94051.53;5008184;28;20234;-73
2023/10/26 02:46:06;;;;;;;15.85;5.32;;;;;;;16.03;76.35;94029.47;4999445;28;20233;-73
2023/10/26 02:48:33;;;;;;;16.35;5.22;;;;;;;16.01;76.57;94040.31;4998223;28;20234;-73
2023/10/26 02:50:59;;;;;;;18.02;4.38;;;;;;;15.98;76.60;94034.59;5004928;28;20284;-72
2023/10/26 02:53:24;;;;;;;17.00;5.47;;;;;;;15.76;77.22;94042.81;5000042;28;20310;-72
2023/10/26 02:55:50;;;;;;;14.23;4.47;;;;;;;15.89;76.90;94047.25;5003758;28;20286;-72
2023/10/26 02:58:15;;;;;;;12.55;4.50;;;;;;;15.87;76.78;94051.94;5000135;28;20231;-72
2023/10/26 03:00:41;;;;;;;18.65;4.97;;;;;;;15.99;76.54;94058.25;5002024;28;20220;-74
2023/10/26 03:03:06;;;;;;;14.43;5.22;;;;;;;15.94;76.38;94065.22;4999118;28;20221;-73
2023/10/26 03:05:33;;;;;;;17.75;5.25;;;;;;;15.86;76.90;94052.97;5005919;28;20186;-73
2023/10/26 03:07:59;;;;;;;15.95;5.03;;;;;;;15.86;77.18;94061.75;5004714;28;20215;-73
2023/10/26 03:10:25;;;;;;;16.02;4.80;;;;;;;15.93;76.66;94071.50;5004627;28;20226;-73
2023/10/26 03:12:52;;;;;;;16.15;5.35;;;;;;;15.75;76.93;94054.44;5002264;28;20250;-72
2023/10/26 03:15:18;;;;;;;16.20;5.32;;;;;;;15.93;76.69;94052.94;4996918;28;20219;-74
2023/10/26 03:17:43;;;;;;;15.82;5.30;;;;;;;15.80;76.93;94059.94;5002830;28;20234;-75
2023/10/26 03:20:09;;;;;;;17.27;5.60;;;;;;;15.91;76.61;94039.94;5006131;28;20191;-74
2023/10/26 03:22:35;;;;;;;17.65;5.05;;;;;;;15.94;76.72;94059.91;5003672;28;20315;-74
2023/10/26 03:25:00;;;;;;;16.55;4.90;;;;;;;15.92;76.65;94054.00;5004111;28;20242;-74
2023/10/26 03:27:26;;;;;;;19.45;5.55;;;;;;;15.86;76.79;94053.78;5003153;28;20251;-74
2023/10/26 03:29:52;;;;;;;20.38;5.70;;;;;;;15.84;76.65;94042.56;5001897;28;20246;-73
2023/10/26 03:32:18;;;;;;;20.17;5.88;;;;;;;15.73;77.08;94047.72;5001201;28;20199;-73
2023/10/26 03:34:43;;;;;;;17.42;4.65;;;;;;;15.80;76.94;94048.53;5003416;28;20218;-73
2023/10/26 03:37:09;;;;;;;16.90;5.90;;;;;;;15.87;76.62;94052.75;5001554;28;20278;-73
2023/10/26 03:39:34;;;;;;;16.95;5.60;;;;;;;15.64;76.82;94052.38;5004439;28;20298;-72
2023/10/26 03:42:00;;;;;;;17.88;6.10;;;;;;;15.66;77.02;94016.72;5001733;28;20246;-73
2023/10/26 03:44:25;;;;;;;17.88;6.07;;;;;;;15.69;76.88;94026.13;5003324;28;20182;-72
2023/10/26 03:46:52;;;;;;;17.88;5.22;;;;;;;15.52;77.94;94040.78;5001172;28;20171;-72
2023/10/26 03:49:19;;;;;;;18.13;5.82;;;;;;;15.53;77.99;94037.09;5009567;28;20306;-73
2023/10/26 03:51:45;;;;;;;14.23;5.55;;;;;;;15.63;77.26;94025.06;5001984;28;20269;-71
2023/10/26 03:54:11;;;;;;;12.02;5.50;;;;;;;15.65;77.15;94014.25;5004673;28;20257;-71
2023/10/26 03:56:36;;;;;;;13.77;5.20;;;;;;;15.56;77.59;94013.69;5006855;28;20211;-70
2023/10/26 03:59:02;;;;;;;17.92;6.57;;;;;;;15.53;77.97;94008.78;5003168;28;20179;-74
2023/10/26 04:01:28;;;;;;;18.35;6.20;;;;;;;15.62;77.95;94014.69;5002483;28;20219;-73
2023/10/26 04:03:53;;;;;;;16.98;6.60;;;;;;;15.64;77.90;94008.16;5001753;28;20229;-75
2023/10/26 04:06:18;;;;;;;14.98;5.32;;;;;;;15.63;78.07;94011.81;5009870;28;20222;-74
2023/10/26 04:08:44;;;;;;;15.52;5.68;;;;;;;15.55;77.43;93996.13;4998893;28;20223;-75
2023/10/26 04:11:18;;;;;;;13.40;5.32;;;;;;;15.68;76.74;94013.84;5007147;28;20182;-73
2023/10/26 04:13:44;;;;;;;18.00;5.70;;;;;;;15.57;77.00;94003.88;5005906;28;20210;-73
2023/10/26 04:16:09;;;;;;;10.98;5.07;;;;;;;15.62;76.83;94012.03;5004972;28;20482;-74
2023/10/26 04:18:35;;;;;;;14.23;4.93;;;;;;;15.54;77.25;94006.94;5003634;28;20245;-73
2023/10/26 04:21:00;;;;;;;16.55;6.38;;;;;;;15.59;76.91;94031.81;4997815;28;20232;-74
2023/10/26 04:23:27;;;;;;;12.30;4.80;;;;;;;15.57;77.09;94031.19;4995436;28;20238;-74
2023/10/26 04:25:53;;;;;;;11.80;4.70;;;;;;;15.63;76.41;94026.91;4999351;28;20230;-73
2023/10/26 04:28:19;;;;;;;11.15;4.55;;;;;;;15.64;75.93;94039.16;4999324;28;20227;-69
2023/10/26 04:30:48;;;;;;;18.35;4.72;;;;;;;15.64;76.31;94039.16;4992313;28;20246;-74
2023/10/26 04:33:17;;;;;;;16.10;4.63;;;;;;;15.51;76.14;94039.16;4996133;28;20246;-73
2023/10/26 04:35:44;;;;;;;15.30;5.35;;;;;;;15.55;76.37;94019.16;5006630;28;20215;-72
2023/10/26 04:38:10;;;;;;;16.85;5.00;;;;;;;15.46;76.38;94031.00;4985143;28;20194;-74
2023/10/26 04:40:38;;;;;;;13.73;4.93;;;;;;;15.48;77.21;94026.34;4997754;28;20235;-72
2023/10/26 04:43:03;;;;;;;16.58;4.70;;;;;;;15.50;76.83;94026.91;4993725;28;20220;-71
2023/10/26 04:45:29;;;;;;;14.60;5.00;;;;;;;15.53;76.66;94026.50;4984471;28;20258;-71
2023/10/26 04:47:54;;;;;;;14.88;5.05;;;;;;;15.51;76.30;94024.06;4976640;28;20223;-73
2023/10/26 04:50:20;;;;;;;13.75;5.05;;;;;;;15.56;76.01;94031.41;4982713;28;20199;-72
2023/10/26 04:52:47;;;;;;;14.48;4.97;;;;;;;15.54;76.37;94020.19;4982531;28;20252;-72
2023/10/26 04:55:13;;;;;;;16.60;5.38;;;;;;;15.27;77.38;94012.28;4981526;28;20322;-72
2023/10/26 04:57:38;;;;;;;16.38;4.88;;;;;;;15.53;77.30;94023.84;4983061;28;20455;-72
2023/10/26 05:00:08;;;;;;;13.63;5.32;;;;;;;15.48;76.88;94028.97;4983269;28;20216;-73
2023/10/26 05:02:38;;;;;;;14.30;4.97;;;;;;;15.43;77.09;94035.69;4983137;28;20203;-73
2023/10/26 05:05:09;;;;;;;14.82;5.10;;;;;;;15.61;77.22;94042.19;4987683;28;20198;-75
2023/10/26 05:07:35;;;;;;;13.60;5.38;;;;;;;15.53;77.29;94034.44;4984830;28;20215;-74
2023/10/26 05:10:00;;;;;;;13.52;4.88;;;;;;;15.53;77.49;94031.78;4976877;28;20266;-75
2023/10/26 05:12:26;;;;;;;15.30;5.72;;;;;;;15.33;78.52;94032.66;4977631;28;20302;-74
2023/10/26 05:14:51;;;;;;;17.08;5.85;;;;;;;15.33;78.60;94035.28;4983938;28;20222;-76
2023/10/26 05:17:17;;;;;;;16.45;5.00;;;;;;;15.39;78.00;94037.09;5001141;28;20191;-75
2023/10/26 05:19:42;;;;;;;13.63;4.80;;;;;;;15.54;77.45;94041.41;5000577;28;20229;-74
2023/10/26 05:22:08;;;;;;;11.10;4.97;;;;;;;15.51;77.39;94039.97;5001584;28;20294;-74
2023/10/26 05:24:34;;;;;;;16.63;4.85;;;;;;;15.56;77.25;94060.56;4996886;28;20327;-76
2023/10/26 05:26:59;;;;;;;16.88;5.90;;;;;;;15.48;76.86;94053.63;5002841;28;20294;-74
2023/10/26 05:29:25;;;;;;;12.77;4.85;;;;;;;15.54;77.28;94054.66;4995521;28;20215;-73
2023/10/26 05:31:51;;;;;;;12.68;5.45;;;;;;;15.75;76.50;94050.97;5001473;28;20278;-75
2023/10/26 05:34:16;;;;;;;12.93;5.07;;;;;;;15.64;77.31;94055.84;4999473;28;20233;-74
2023/10/26 05:36:42;;;;;;;16.83;4.68;;;;;;;15.87;76.70;94052.75;4994654;28;20223;-71
2023/10/26 05:39:07;;;;;;;14.10;5.05;;;;;;;15.79;76.35;94074.19;5002996;28;20281;-77
2023/10/26 05:41:34;;;;;;;10.25;4.90;;;;;;;15.87;76.53;94066.00;5000676;28;20265;-76
2023/10/26 05:43:59;;;;;;;16.02;5.82;;;;;;;15.94;76.42;94066.00;4998293;28;20262;-78
2023/10/26 05:46:25;;;;;;;13.20;5.50;;;;;;;16.00;76.10;94059.06;5001770;28;20226;-77
2023/10/26 05:48:51;;;;;;;15.35;5.80;;;;;;;16.08;76.29;94064.13;5001812;28;20218;-75
2023/10/26 05:51:16;;;;;;;18.23;5.72;;;;;;;16.01;76.93;94068.63;4994726;28;20215;-78
2023/10/26 05:53:42;;;;;;;17.50;6.30;;;;;;;16.08;76.17;94072.09;5003131;28;20229;-82
2023/10/26 05:56:07;;;;;;;14.48;6.03;;;;;;;16.09;76.44;94084.31;5000615;28;20317;-77
2023/10/26 05:58:33;;;;;;;19.52;6.30;;;;;;;16.13;76.31;94085.53;4997034;28;20218;-75
2023/10/26 06:00:59;;;;;;;14.95;6.68;;;;;;;16.21;76.17;94097.75;4984493;28;20231;-75
2023/10/26 06:03:25;;;;;;;12.68;5.95;;;;;;;16.17;76.33;94091.22;4979600;28;20304;-75
2023/10/26 06:05:51;;;;;;;18.20;6.28;;;;;;;16.24;75.84;94098.16;4983942;28;20322;-70
2023/10/26 06:08:16;;;;;;;16.75;6.20;;;;;;;16.33;75.30;94093.41;4981079;28;20188;-72
2023/10/26 06:10:42;;;;;;;14.60;5.82;;;;;;;16.28;76.07;94094.06;4978135;28;20220;-73
2023/10/26 06:13:07;;;;;;;10.63;5.80;;;;;;;16.30;75.15;94104.47;4981497;28;20216;-71
2023/10/26 06:15:34;;;;;;;15.82;6.65;;;;;;;16.39;75.29;94110.38;4979114;28;20220;-71
2023/10/26 06:17:59;;;;;;;16.88;7.20;;;;;;;16.27;75.67;94102.22;4982742;28;20311;-72
2023/10/26 06:20:27;;;;;;;16.02;6.40;;;;;;;16.19;76.22;94100.59;4993664;28;20214;-73
2023/10/26 06:22:56;;;;;;;17.45;7.22;;;;;;;16.25;76.85;94098.97;4986293;28;20265;-72
2023/10/26 06:25:21;;;;;;;13.00;6.35;;;;;;;16.29;77.38;94090.38;4996292;28;20208;-70
2023/10/26 06:27:47;;;;;;;23.33;7.20;;;;;;;16.36;77.02;94095.69;4978491;28;20224;-73
2023/10/26 06:30:15;;;;;;;16.85;6.95;;;;;;;16.27;76.54;94095.06;4982911;28;20326;-74
2023/10/26 06:32:41;;;;;;;19.40;7.25;;;;;;;16.33;76.19;94096.06;4986305;28;20184;-70
2023/10/26 06:35:06;;;;;;;15.50;7.68;;;;;;;16.40;75.92;94096.06;4982184;28;20195;-76
2023/10/26 06:37:32;;;;;;;15.40;7.25;;;;;;;16.41;75.76;94093.22;4984832;28;20341;-74
2023/10/26 06:39:58;;;;;;;17.85;8.38;;;;;;;16.27;75.30;94087.13;4991511;28;20242;-71
2023/10/26 06:42:23;;;;;;;19.30;9.50;;;;;;;16.19;76.80;94100.59;4999859;28;20230;-70
2023/10/26 06:44:49;;;;;;;13.52;7.18;;;;;;;16.23;76.35;94096.53;5006145;28;20229;-75
2023/10/26 06:47:14;;;;;;;21.23;8.40;;;;;;;16.36;75.58;94108.09;4998647;28;20191;-73
2023/10/26 06:49:41;;;;;;;16.88;8.00;;;;;;;16.48;75.28;94096.63;4995018;28;20228;-75
2023/10/26 06:52:07;;;;;;;20.58;7.10;;;;;;;16.58;75.04;94103.34;5002865;28;20222;-74
2023/10/26 06:54:32;;;;;;;23.45;6.68;;;;;;;16.56;74.59;94103.56;5000809;28;20229;-70
2023/10/26 06:56:59;;;;;;;15.52;7.00;;;;;;;16.59;74.38;94104.97;5000038;28;20314;-75
2023/10/26 06:59:24;;;;;;;17.90;7.97;;;;;;;16.73;73.81;94095.91;5005524;28;20183;-75
2023/10/26 07:01:50;;;;;;;13.85;6.75;;;;;;;16.87;73.72;94108.13;4999502;28;20222;-75
2023/10/26 07:04:16;;;;;;;15.93;5.68;;;;;;;16.76;72.96;94114.09;5005668;28;20493;-72
2023/10/26 07:06:41;;;;;;;13.90;5.93;;;;;;;16.66;73.47;94130.47;5002211;28;20222;-79
2023/10/26 07:09:07;;;;;;;13.15;5.43;;;;;;;16.71;72.55;94129.84;5005187;28;20300;-80
2023/10/26 07:11:32;;;;;;;17.23;5.40;;;;;;;16.83;72.21;94124.69;5006869;28;20270;-74
2023/10/26 07:13:58;;;;;;;15.82;5.90;;;;;;;16.98;71.92;94125.25;5000796;28;20270;-72
2023/10/26 07:16:24;;;;;;;16.30;5.60;;;;;;;17.01;71.73;94122.16;5002562;28;20233;-73
2023/10/26 07:18:50;;;;;;;14.88;6.10;;;;;;;17.09;71.74;94103.31;4999616;28;20302;-72
2023/10/26 07:21:16;;;;;;;11.65;5.38;;;;;;;17.17;71.64;94108.34;5002480;28;20241;-71
2023/10/26 07:23:41;;;;;;;13.90;5.43;;;;;;;17.09;70.76;94115.78;5003829;28;20258;-73
2023/10/26 07:26:07;;;;;;;16.38;5.38;;;;;;;16.94;71.36;94121.38;4997415;28;20203;-74
2023/10/26 07:28:32;;;;;;;19.83;4.53;;;;;;;17.12;65.55;94102.88;5001585;28;20235;-67
2023/10/26 07:30:58;;;;;;;13.13;5.68;;;;;;;16.97;69.90;94107.66;4995608;28;20219;-74
2023/10/26 07:33:23;;;;;;;16.05;5.80;;;;;;;17.03;70.25;94092.75;5006765;28;20215;-80
2023/10/26 07:35:56;;;;;;;14.38;5.68;;;;;;;17.20;70.08;94105.25;5002345;28;20222;-72
2023/10/26 07:38:24;;;;;;;18.85;5.80;;;;;;;17.20;69.62;94118.53;5000974;28;20210;-73
2023/10/26 07:40:54;;;;;;;18.92;7.97;;;;;;;17.32;67.84;94088.63;5004406;28;20230;-80
2023/10/26 07:43:20;;;;;;;15.13;6.60;;;;;;;17.37;67.94;94073.69;5000520;28;20337;-77
2023/10/26 07:45:47;;;;;;;12.88;7.20;;;;;;;17.37;68.75;94088.78;5001781;28;20226;-75
2023/10/26 07:48:13;;;;;;;16.25;6.68;;;;;;;17.14;69.28;94084.88;4996343;28;20218;-75
2023/10/26 07:50:38;;;;;;;13.82;6.45;;;;;;;17.03;70.29;94090.88;4997076;28;20206;-74
2023/10/26 07:53:05;;;;;;;15.95;5.43;;;;;;;17.10;69.63;94070.38;4997907;28;20180;-72
2023/10/26 07:55:31;;;;;;;13.73;5.75;;;;;;;17.14;70.04;94082.22;4999864;28;20227;-72
2023/10/26 07:57:57;;;;;;;17.13;6.40;;;;;;;17.20;70.04;94073.38;5000088;28;20223;-69
2023/10/26 08:00:22;;;;;;;15.15;6.53;;;;;;;17.35;69.81;94061.66;4998084;28;20266;-70
2023/10/26 08:02:48;;;;;;;13.60;6.45;;;;;;;17.41;69.78;94058.13;5004493;28;20319;-71
2023/10/26 08:05:15;;;;;;;22.30;6.88;;;;;;;17.50;69.65;94062.13;5003641;28;20192;-72
2023/10/26 08:07:41;;;;;;;16.27;6.22;;;;;;;17.38;69.34;94059.38;5002547;28;20245;-73
2023/10/26 08:10:09;;;;;;;15.40;6.80;;;;;;;17.42;69.66;94054.41;5000594;28;20237;-75
2023/10/26 08:12:35;;;;;;;13.95;7.20;;;;;;;17.43;70.09;94056.06;4997123;28;20215;-73
2023/10/26 08:15:02;;;;;;;20.60;7.93;;;;;;;17.58;69.53;94066.34;5001363;28;20223;-71
2023/10/26 08:17:28;;;;;;;21.02;8.32;;;;;;;17.56;69.36;94069.25;4999101;28;20194;-74
2023/10/26 08:19:55;;;;;;;20.75;8.50;;;;;;;17.57;68.90;94059.41;5003667;28;20198;-74
2023/10/26 08:22:21;;;;;;;16.65;7.65;;;;;;;17.51;69.18;94061.09;5005292;28;20230;-76
2023/10/26 08:24:49;;;;;;;17.25;6.65;;;;;;;17.57;68.44;94060.22;5003908;28;20214;-72
2023/10/26 08:27:15;;;;;;;17.30;7.20;;;;;;;17.52;68.65;94054.75;5005712;28;20227;-73
2023/10/26 08:29:41;;;;;;;16.83;7.50;;;;;;;17.48;69.10;94045.59;4999366;28;20320;-81
2023/10/26 08:32:07;;;;;;;18.35;7.53;;;;;;;17.49;69.23;94047.22;5010240;28;20203;-81
2023/10/26 08:34:32;;;;;;;17.88;7.90;;;;;;;17.55;69.14;94050.84;4999317;28;20219;-75
2023/10/26 08:37:01;;;;;;;17.48;7.43;;;;;;;17.58;69.14;94053.88;5000104;28;20294;-72
2023/10/26 08:39:26;;;;;;;16.58;8.60;;;;;;;17.66;68.98;94054.63;4999420;28;20228;-72
2023/10/26 08:41:52;;;;;;;20.23;7.80;;;;;;;17.73;68.86;94047.41;5002689;28;20288;-72
2023/10/26 08:44:18;;;;;;;18.05;8.05;;;;;;;17.81;68.76;94028.53;5005167;28;20206;-71
2023/10/26 08:46:47;;;;;;;18.77;7.93;;;;;;;17.96;67.92;94047.63;4998306;28;20219;-79
2023/10/26 08:49:13;;;;;;;18.88;7.63;;;;;;;18.06;67.45;94045.22;5005832;28;20254;-84
2023/10/26 08:51:38;;;;;;;17.38;6.93;;;;;;;18.04;67.85;94034.03;5008050;28;20249;-74
2023/10/26 08:54:05;;;;;;;14.93;7.18;;;;;;;18.36;66.28;94031.16;4978889;28;20255;-75
2023/10/26 08:56:31;;;;;;;17.15;6.47;;;;;;;17.97;68.29;94027.94;4998112;28;20282;-78
2023/10/26 08:58:57;;;;;;;14.30;6.30;;;;;;;17.83;68.85;94023.81;5003249;28;20255;-78
2023/10/26 09:01:23;;;;;;;17.85;6.13;;;;;;;17.78;69.11;94007.69;5002984;28;20223;-73
2023/10/26 09:03:49;;;;;;;17.63;6.15;;;;;;;17.89;69.12;94014.16;4997752;28;20238;-75
2023/10/26 09:06:14;;;;;;;13.23;5.60;;;;;;;17.94;67.98;94006.31;4997296;28;20260;-73
2023/10/26 09:08:40;;;;;;;15.60;5.97;;;;;;;17.99;67.61;93993.97;5003138;28;20186;-74
2023/10/26 09:11:20;;;;;;;10.35;4.80;;;;;;;17.96;66.29;93989.09;5008273;28;20183;-78
2023/10/26 09:13:46;;;;;;;12.18;4.63;;;;;;;18.32;60.44;93990.09;4984201;28;20279;-74
2023/10/26 09:16:12;;;;;;;14.52;5.65;;;;;;;18.44;61.92;93985.66;5007186;28;20254;-75
2023/10/26 09:18:38;;;;;;;14.55;5.80;;;;;;;18.51;62.63;94006.84;5005781;28;20242;-79
2023/10/26 09:21:08;;;;;;;15.95;5.00;;;;;;;18.71;61.88;93995.91;5004799;28;20225;-73
2023/10/26 09:23:36;;;;;;;13.73;5.20;;;;;;;18.83;61.05;93996.78;5000880;28;20187;-84
2023/10/26 09:26:04;;;;;;;16.38;6.28;;;;;;;18.90;60.18;94004.69;5007122;28;20195;-71
2023/10/26 09:28:53;;;;;;;14.15;6.20;;;;;;;19.09;58.59;93995.56;5002777;28;20286;-70
2023/10/26 09:31:19;;;;;;;15.50;6.70;;;;;;;19.22;58.59;93996.38;5006377;28;20211;-70
2023/10/26 09:33:45;;;;;;;16.95;6.05;;;;;;;19.37;57.98;93994.09;5005093;28;20222;-78
2023/10/26 09:36:12;;;;;;;12.77;5.22;;;;;;;19.42;56.94;94002.22;5004001;28;20227;-81
2023/10/26 09:38:39;;;;;;;15.65;5.57;;;;;;;19.43;55.90;93995.03;4989730;28;20323;-78
2023/10/26 09:41:16;;;;;;;8.07;5.22;;;;;;;19.52;55.61;94001.66;5005108;28;20233;-77
2023/10/26 09:43:42;;;;;;;18.70;5.97;;;;;;;19.46;56.09;93997.22;5007416;28;20223;-77
2023/10/26 09:46:11;;;;;;;17.70;6.88;;;;;;;19.51;56.06;94002.66;5001111;28;20215;-77
2023/10/26 09:48:38;;;;;;;21.42;6.63;;;;;;;19.61;56.08;93997.56;5011253;28;20253;-76
2023/10/26 09:51:04;;;;;;;18.60;6.20;;;;;;;19.69;55.36;93981.25;5001164;28;20274;-77
2023/10/26 09:53:36;;;;;;;12.00;4.80;;;;;;;19.74;53.92;93978.69;5002698;28;20183;-76
2023/10/26 09:56:03;;;;;;;13.98;4.97;;;;;;;19.86;53.38;93980.53;5005015;28;20191;-77
2023/10/26 09:58:34;;;;;;;15.23;4.80;;;;;;;20.00;52.63;93979.25;5004874;28;20255;-77
2023/10/26 10:01:00;;;;;;;9.27;3.88;;;;;;;20.12;51.43;93976.53;5005596;28;20229;-76
2023/10/26 10:03:28;;;;;;;16.52;4.30;;;;;;;20.41;51.04;93962.16;5000925;28;20223;-76
2023/10/26 10:05:54;;;;;;;17.67;4.38;;;;;;;20.70;50.05;93960.34;5008797;28;20408;-76
2023/10/26 10:08:57;;;;;;;13.73;4.07;;;;;;;20.87;50.04;93956.88;4999857;28;20274;-78
2023/10/26 10:11:22;;;;;;;9.93;3.13;;;;;;;20.89;47.67;93936.06;4996312;28;20219;-80
2023/10/26 10:13:49;;;;;;;11.73;3.20;;;;;;;20.90;47.79;93938.53;4998294;28;20231;-78
2023/10/26 10:16:33;;;;;;;11.10;3.80;;;;;;;20.88;48.03;93939.81;5003196;28;20241;-76
2023/10/26 10:19:21;;;;;;;9.23;3.63;;;;;;;20.84;47.26;93944.81;5005887;28;20309;-76
2023/10/26 10:21:48;;;;;;;12.20;4.55;;;;;;;20.89;46.95;93946.75;5000596;28;20230;-74
2023/10/26 10:24:39;;;;;;;12.95;4.40;;;;;;;21.06;46.13;93941.41;5008940;28;20278;-80
2023/10/26 10:27:15;;;;;;;17.73;3.28;;;;;;;21.19;43.75;93930.41;4999438;28;20234;-78
2023/10/26 10:29:42;;;;;;;8.88;3.67;;;;;;;21.26;43.74;93925.72;5002014;28;20187;-76
2023/10/26 10:32:10;;;;;;;7.10;3.05;;;;;;;21.45;43.04;93930.81;5001413;28;20180;-77
2023/10/26 10:34:57;;;;;;;9.05;3.45;;;;;;;21.50;43.10;93921.00;5000697;28;20233;-75
2023/10/26 10:37:23;;;;;;;8.00;4.75;;;;;;;21.65;42.38;93924.94;5002979;28;20254;-77
2023/10/26 10:40:11;;;;;;;8.90;4.43;;;;;;;21.73;41.78;93917.31;4997457;28;20223;-76
2023/10/26 10:42:45;;;;;;;8.02;3.30;;;;;;;21.85;40.65;93911.84;5004319;28;21775;-77
2023/10/26 10:45:14;;;;;;;11.05;3.20;;;;;;;21.75;39.18;93906.34;5001082;28;20309;-79
2023/10/26 10:47:43;;;;;;;5.55;2.53;;;;;;;21.96;39.55;93897.50;5010691;28;20187;-79
2023/10/26 10:50:16;;;;;;;10.95;3.15;;;;;;;22.08;40.42;93904.59;4982002;28;20431;-77
2023/10/26 10:52:41;;;;;;;5.43;2.95;;;;;;;22.27;38.71;93902.47;5002050;28;20219;-76
2023/10/26 10:55:08;;;;;;;7.22;3.00;;;;;;;22.32;38.02;93899.81;4997771;28;20231;-75
2023/10/26 10:57:33;;;;;;;12.27;3.60;;;;;;;22.39;37.79;93892.41;5004218;28;20235;-76
2023/10/26 10:59:58;;;;;;;6.65;2.45;;;;;;;22.56;38.67;93908.34;5006076;28;20219;-76
2023/10/26 11:02:24;;;;;;;9.13;2.47;;;;;;;22.86;38.07;93889.09;5002473;28;20207;-77
2023/10/26 11:05:01;;;;;;;6.72;2.63;;;;;;;23.17;36.50;93890.16;5003824;28;20220;-79
2023/10/26 11:07:28;;;;;;;6.53;2.70;;;;;;;23.40;35.35;93882.81;5009591;28;20230;-80
2023/10/26 11:10:01;;;;;;;8.18;3.10;;;;;;;23.68;35.21;93889.66;5007088;28;20224;-77
2023/10/26 11:12:27;;;;;;;9.15;2.55;;;;;;;23.62;35.27;93894.19;4999479;28;20224;-76
2023/10/26 11:14:54;;;;;;;6.07;2.80;;;;;;;23.71;34.52;93884.63;5000909;28;20281;-75
2023/10/26 11:17:21;;;;;;;5.30;2.17;;;;;;;23.73;35.07;93882.47;4989358;28;20279;-76
2023/10/26 11:19:48;;;;;;;5.95;2.65;;;;;;;23.83;35.01;93886.28;4998572;28;20229;-77
2023/10/26 11:22:14;;;;;;;3.72;2.53;;;;;;;23.84;34.90;93877.16;4996267;28;20237;-76
2023/10/26 11:24:40;;;;;;;5.78;2.75;;;;;;;23.73;34.85;93879.78;5004711;28;20222;-76